Time;durP1;ratioP1;P1;durP2;ratioP2;P2;SDS_P1;SDS_P2;PMS_P1;PMS_P2;Temp;Humidity;BMP_temperature;BMP_pressure;BME280_temperature;BME280_humidity;BME280_pressure;Samples;Min_cycle;Max_cycle;Signal;HPM_P1;HPM_P2
2023/03/26 00:00:18;;;;;;;4.22;1.38;;;7.20;99.90;;;;;;7407772;19;19927;-80
2023/03/26 00:02:46;;;;;;;8.05;1.67;;;6.90;99.90;;;;;;7408459;19;19922;-79
2023/03/26 00:05:16;;;;;;;7.05;1.85;;;6.80;99.90;;;;;;7407569;19;20337;-79
2023/03/26 00:07:47;;;;;;;6.55;1.45;;;6.80;99.90;;;;;;7407267;19;19982;-82
2023/03/26 00:10:17;;;;;;;7.70;1.80;;;7.20;99.90;;;;;;7405877;19;19919;-82
2023/03/26 00:12:45;;;;;;;13.00;1.60;;;6.80;99.90;;;;;;7408960;19;19942;-82
2023/03/26 00:15:17;;;;;;;7.00;1.45;;;7.50;99.90;;;;;;7409710;19;19919;-81
2023/03/26 00:17:47;;;;;;;9.45;2.03;;;6.80;99.90;;;;;;7407762;19;20311;-81
2023/03/26 00:20:16;;;;;;;9.60;1.52;;;6.80;99.90;;;;;;7408579;19;19926;-85
2023/03/26 00:22:45;;;;;;;9.88;2.00;;;6.80;99.90;;;;;;7409088;19;19914;-83
2023/03/26 00:25:14;;;;;;;10.38;2.28;;;6.80;99.90;;;;;;7409789;19;19926;-83
2023/03/26 00:27:44;;;;;;;10.32;1.75;;;6.00;99.90;;;;;;7407610;19;19974;-83
2023/03/26 00:30:14;;;;;;;10.07;1.92;;;8.10;99.90;;;;;;7407600;19;20780;-79
2023/03/26 00:32:46;;;;;;;11.30;1.80;;;6.90;99.90;;;;;;7405258;19;20001;-79
2023/03/26 00:35:15;;;;;;;6.80;1.60;;;7.00;99.90;;;;;;7402932;19;19970;-79
2023/03/26 00:37:52;;;;;;;10.90;2.28;;;6.90;99.90;;;;;;7404961;19;19927;-80
2023/03/26 00:40:22;;;;;;;10.95;1.30;;;6.10;99.90;;;;;;7408212;19;19919;-79
2023/03/26 00:43:17;;;;;;;15.95;3.08;;;6.50;99.90;;;;;;7398932;19;19922;-79
2023/03/26 00:45:47;;;;;;;3.63;1.40;;;6.80;99.90;;;;;;7404883;19;19925;-79
2023/03/26 00:48:19;;;;;;;10.40;1.80;;;6.80;99.90;;;;;;7404016;19;19950;-79
2023/03/26 00:50:51;;;;;;;7.10;1.40;;;7.20;99.90;;;;;;7405507;19;20279;-79
2023/03/26 00:53:20;;;;;;;9.25;1.40;;;6.80;99.90;;;;;;7404135;19;19919;-79
2023/03/26 00:55:50;;;;;;;5.20;2.05;;;6.80;99.90;;;;;;7406851;19;20356;-79
2023/03/26 00:58:22;;;;;;;13.52;2.53;;;6.70;99.90;;;;;;7406018;19;19918;-79
2023/03/26 01:00:56;;;;;;;13.32;1.73;;;7.30;99.90;;;;;;7407743;19;20389;-79
2023/03/26 01:03:32;;;;;;;9.80;1.55;;;6.80;99.90;;;;;;7406317;19;19938;-79
2023/03/26 01:06:06;;;;;;;7.45;1.30;;;6.80;99.90;;;;;;7407185;19;19911;-80
2023/03/26 01:08:39;;;;;;;7.07;1.33;;;6.60;99.90;;;;;;7405699;19;19926;-79
2023/03/26 01:11:12;;;;;;;9.55;1.60;;;6.60;99.90;;;;;;7406318;19;19985;-79
2023/03/26 01:13:45;;;;;;;5.90;1.35;;;6.60;99.90;;;;;;7404659;19;19931;-80
2023/03/26 01:16:38;;;;;;;11.23;1.90;;;6.60;99.90;;;;;;7405346;19;19918;-79
2023/03/26 01:19:21;;;;;;;11.98;1.73;;;6.70;99.90;;;;;;7406380;19;19929;-79
2023/03/26 01:22:08;;;;;;;12.18;1.60;;;5.70;99.90;;;;;;7406664;19;20402;-79
2023/03/26 01:24:39;;;;;;;7.25;1.55;;;6.50;99.90;;;;;;7405405;19;19924;-79
2023/03/26 01:27:23;;;;;;;7.80;1.67;;;6.40;99.90;;;;;;7405097;19;19998;-79
2023/03/26 01:29:57;;;;;;;6.85;2.00;;;6.80;99.90;;;;;;7403380;19;19926;-79
2023/03/26 01:32:32;;;;;;;;;;;6.50;99.90;;;;;;7405769;19;19919;-79
2023/03/26 01:35:13;;;;;;;7.82;1.58;;;6.70;99.90;;;;;;7403021;19;19926;-79
2023/03/26 01:37:57;;;;;;;11.45;1.52;;;7.70;99.90;;;;;;7405632;19;19922;-80
2023/03/26 01:40:37;;;;;;;11.27;1.65;;;6.60;99.90;;;;;;7404450;19;19937;-79
2023/03/26 01:43:12;;;;;;;8.90;1.98;;;6.90;99.90;;;;;;7404406;19;19998;-79
2023/03/26 01:45:46;;;;;;;11.93;2.05;;;6.70;99.90;;;;;;7402613;19;19919;-79
2023/03/26 01:48:15;;;;;;;11.18;1.30;;;6.40;99.90;;;;;;7403064;19;19938;-79
2023/03/26 01:50:44;;;;;;;9.15;1.20;;;6.40;99.90;;;;;;7406182;19;19923;-79
2023/03/26 01:53:15;;;;;;;14.40;1.92;;;6.40;99.90;;;;;;7402334;19;19946;-79
2023/03/26 01:55:57;;;;;;;8.50;1.30;;;6.50;99.90;;;;;;7402895;19;19923;-79
2023/03/26 01:58:36;;;;;;;9.57;1.77;;;6.40;99.90;;;;;;7405029;19;19924;-79
2023/03/26 02:01:18;;;;;;;8.95;1.38;;;5.80;99.90;;;;;;7405549;19;19918;-79
2023/03/26 02:03:53;;;;;;;11.02;1.85;;;6.50;99.90;;;;;;7403144;19;20503;-79
2023/03/26 02:06:30;;;;;;;10.45;1.90;;;7.10;99.90;;;;;;7400802;19;20499;-79
2023/03/26 02:09:16;;;;;;;10.60;2.60;;;5.90;99.90;;;;;;7406495;19;19939;-79
2023/03/26 02:11:49;;;;;;;11.18;2.40;;;6.30;99.90;;;;;;7406886;19;19970;-79
2023/03/26 02:14:18;;;;;;;11.23;2.03;;;6.40;99.90;;;;;;7406234;19;20280;-79
2023/03/26 02:16:50;;;;;;;9.85;2.08;;;6.30;99.90;;;;;;7404163;19;19918;-79
2023/03/26 02:19:20;;;;;;;13.27;2.25;;;5.80;99.90;;;;;;7402863;19;19922;-79
2023/03/26 02:21:51;;;;;;;15.40;1.60;;;7.20;99.90;;;;;;7404020;19;19922;-79
2023/03/26 02:24:23;;;;;;;14.10;1.45;;;6.70;99.90;;;;;;7402329;19;19943;-79
2023/03/26 02:26:56;;;;;;;8.68;2.00;;;6.90;99.90;;;;;;7405312;19;19918;-79
2023/03/26 02:29:26;;;;;;;15.85;2.03;;;6.20;99.90;;;;;;7402335;19;19929;-79
2023/03/26 02:31:55;;;;;;;12.18;1.50;;;6.10;99.90;;;;;;7402806;19;19919;-79
2023/03/26 02:34:24;;;;;;;11.45;1.88;;;6.20;99.90;;;;;;7401818;19;20451;-79
2023/03/26 02:36:53;;;;;;;10.73;1.58;;;6.90;99.90;;;;;;7405672;19;19973;-79
2023/03/26 02:39:23;;;;;;;12.98;2.13;;;6.70;99.90;;;;;;7405518;19;20352;-80
2023/03/26 02:41:54;;;;;;;12.45;1.55;;;6.70;99.90;;;;;;7401264;19;20377;-79
2023/03/26 02:44:23;;;;;;;8.13;1.48;;;7.20;99.90;;;;;;7404974;19;19923;-80
2023/03/26 02:46:55;;;;;;;11.25;1.75;;;7.10;99.90;;;;;;7403970;19;19918;-79
2023/03/26 02:49:24;;;;;;;7.88;1.52;;;6.80;99.90;;;;;;7402034;19;19962;-79
2023/03/26 02:51:55;;;;;;;12.15;1.65;;;6.20;99.90;;;;;;7403967;19;20366;-79
2023/03/26 02:54:24;;;;;;;11.30;2.13;;;6.10;99.90;;;;;;7403109;19;19922;-80
2023/03/26 02:56:55;;;;;;;10.73;3.28;;;6.20;99.90;;;;;;7403426;19;19915;-79
2023/03/26 02:59:24;;;;;;;10.15;1.42;;;6.60;99.90;;;;;;7402979;19;19926;-79
2023/03/26 03:01:53;;;;;;;14.35;2.40;;;6.40;99.90;;;;;;7403613;19;19925;-80
2023/03/26 03:04:22;;;;;;;8.45;1.70;;;6.40;99.90;;;;;;7400017;19;19919;-79
2023/03/26 03:06:56;;;;;;;11.80;1.52;;;6.30;99.90;;;;;;7399147;19;20343;-79
2023/03/26 03:09:26;;;;;;;14.25;2.33;;;7.00;99.90;;;;;;7398327;19;19922;-80
2023/03/26 03:11:58;;;;;;;8.93;2.22;;;6.10;99.90;;;;;;7402171;19;20321;-79
2023/03/26 03:14:27;;;;;;;12.57;1.50;;;6.80;99.90;;;;;;7402147;19;19927;-79
2023/03/26 03:16:56;;;;;;;12.82;2.30;;;6.20;99.90;;;;;;7401917;19;19923;-79
2023/03/26 03:19:30;;;;;;;13.23;1.60;;;6.30;99.90;;;;;;7402894;19;19958;-79
2023/03/26 03:21:58;;;;;;;8.20;1.67;;;6.00;99.90;;;;;;7402758;19;19915;-79
2023/03/26 03:24:27;;;;;;;10.30;1.60;;;6.90;99.90;;;;;;7400106;19;19918;-79
2023/03/26 03:26:59;;;;;;;9.95;2.03;;;5.30;99.90;;;;;;7402273;19;19978;-80
2023/03/26 03:29:28;;;;;;;10.35;1.88;;;6.10;99.90;;;;;;7399020;19;19911;-79
2023/03/26 03:31:58;;;;;;;7.47;1.23;;;7.50;99.90;;;;;;7400032;19;20350;-80
2023/03/26 03:34:27;;;;;;;8.50;2.58;;;5.80;99.90;;;;;;7399881;19;19926;-79
2023/03/26 03:36:56;;;;;;;10.60;2.67;;;5.90;99.90;;;;;;7402179;19;19943;-80
2023/03/26 03:39:26;;;;;;;9.50;2.00;;;6.50;99.90;;;;;;7400779;19;19925;-79
2023/03/26 03:41:55;;;;;;;9.63;1.40;;;5.60;99.90;;;;;;7400504;19;20318;-79
2023/03/26 03:44:27;;;;;;;8.05;1.58;;;7.20;99.90;;;;;;7399859;19;19982;-79
2023/03/26 03:46:56;;;;;;;5.65;1.17;;;6.20;99.90;;;;;;7403283;19;19931;-80
2023/03/26 03:49:25;;;;;;;9.48;1.67;;;7.10;99.90;;;;;;7402244;19;19922;-79
2023/03/26 03:52:02;;;;;;;10.07;1.50;;;5.70;99.90;;;;;;7400637;19;19922;-79
2023/03/26 03:54:30;;;;;;;8.30;1.35;;;7.20;99.90;;;;;;7399757;19;19914;-80
2023/03/26 03:57:06;;;;;;;6.85;1.23;;;6.40;99.90;;;;;;7401483;19;19919;-79
2023/03/26 03:59:38;;;;;;;11.10;1.67;;;5.40;99.90;;;;;;7398917;19;19919;-79
2023/03/26 04:02:06;;;;;;;16.50;1.65;;;6.20;99.90;;;;;;7401472;19;19918;-80
2023/03/26 04:04:36;;;;;;;16.08;1.75;;;6.10;99.90;;;;;;7400003;19;20576;-79
2023/03/26 04:07:05;;;;;;;11.23;1.42;;;7.10;99.90;;;;;;7399806;19;20332;-79
2023/03/26 04:09:34;;;;;;;9.32;2.47;;;6.20;99.90;;;;;;7400316;19;19926;-80
2023/03/26 04:12:03;;;;;;;9.65;2.00;;;6.90;99.90;;;;;;7401165;19;19922;-79
2023/03/26 04:14:32;;;;;;;13.43;1.45;;;6.80;99.90;;;;;;7401503;19;19918;-79
2023/03/26 04:17:04;;;;;;;9.98;1.35;;;6.10;99.90;;;;;;7403768;19;19919;-79
2023/03/26 04:19:33;;;;;;;;;;;6.90;99.90;;;;;;7411662;19;19964;-79
2023/03/26 04:22:02;;;;;;;8.63;1.80;;;6.20;99.90;;;;;;7410077;19;19942;-79
2023/03/26 04:24:32;;;;;;;6.40;1.27;;;6.10;99.90;;;;;;7405486;19;19919;-79
2023/03/26 04:27:02;;;;;;;6.97;1.42;;;6.20;99.90;;;;;;7409403;19;19926;-79
2023/03/26 04:29:41;;;;;;;9.20;1.52;;;6.40;99.90;;;;;;7408233;19;19914;-79
2023/03/26 04:32:19;;;;;;;15.02;1.67;;;5.80;99.90;;;;;;7404886;19;19915;-79
2023/03/26 04:34:48;;;;;;;6.55;1.67;;;5.90;99.90;;;;;;7406236;19;19922;-79
2023/03/26 04:37:25;;;;;;;8.40;1.20;;;6.00;99.90;;;;;;7407531;19;19934;-78
2023/03/26 04:39:55;;;;;;;15.75;2.45;;;6.40;99.90;;;;;;7408681;19;19918;-80
2023/03/26 04:42:25;;;;;;;15.00;1.92;;;6.10;99.90;;;;;;7410143;19;19919;-79
2023/03/26 04:44:54;;;;;;;9.57;1.77;;;5.00;99.90;;;;;;7408206;19;19914;-80
2023/03/26 04:47:27;;;;;;;7.70;1.67;;;5.90;99.90;;;;;;7408125;19;19985;-79
2023/03/26 04:50:16;;;;;;;12.65;2.00;;;6.30;99.90;;;;;;7401691;19;19951;-79
2023/03/26 04:53:05;;;;;;;9.88;1.40;;;6.70;99.90;;;;;;7404822;19;19950;-79
2023/03/26 04:56:00;;;;;;;6.60;1.40;;;6.30;99.90;;;;;;7405893;19;19930;-80
2023/03/26 04:58:50;;;;;;;8.82;1.30;;;6.80;99.90;;;;;;7405074;19;19918;-80
2023/03/26 05:01:40;;;;;;;8.98;1.42;;;5.60;99.90;;;;;;7403900;19;19923;-79
2023/03/26 05:04:12;;;;;;;13.18;1.63;;;6.20;99.90;;;;;;7404171;19;19914;-79
2023/03/26 05:06:41;;;;;;;8.30;1.55;;;5.90;99.90;;;;;;7407271;19;19923;-79
2023/03/26 05:09:11;;;;;;;12.60;1.75;;;7.20;99.90;;;;;;7405747;19;20309;-79
2023/03/26 05:11:40;;;;;;;10.10;1.40;;;6.20;99.90;;;;;;7405173;19;19927;-79
2023/03/26 05:14:17;;;;;;;11.23;1.30;;;6.00;99.90;;;;;;7405867;19;20258;-80
2023/03/26 05:16:49;;;;;;;6.47;1.50;;;7.20;99.90;;;;;;7406999;19;19925;-79
2023/03/26 05:19:21;;;;;;;9.32;1.65;;;6.40;99.90;;;;;;7407455;19;19936;-80
2023/03/26 05:21:50;;;;;;;12.98;1.98;;;6.10;99.90;;;;;;7405541;19;19981;-80
2023/03/26 05:24:27;;;;;;;6.55;1.30;;;7.30;99.90;;;;;;7405040;19;19919;-79
2023/03/26 05:26:56;;;;;;;12.68;2.05;;;6.10;99.90;;;;;;7406483;19;19923;-80
2023/03/26 05:29:25;;;;;;;6.25;1.20;;;6.40;99.90;;;;;;7404054;19;20438;-79
2023/03/26 05:31:55;;;;;;;12.52;1.58;;;6.10;99.90;;;;;;7405694;19;19950;-80
2023/03/26 05:34:26;;;;;;;11.13;2.58;;;5.90;99.90;;;;;;7405394;19;19922;-79
2023/03/26 05:36:56;;;;;;;7.75;1.40;;;7.00;99.90;;;;;;7403280;19;20339;-80
2023/03/26 05:39:25;;;;;;;17.80;1.80;;;6.00;99.90;;;;;;7406337;19;19943;-79
2023/03/26 05:41:55;;;;;;;12.02;1.88;;;5.70;99.90;;;;;;7405043;19;19922;-79
2023/03/26 05:44:24;;;;;;;8.95;1.08;;;6.20;99.90;;;;;;7404786;19;19926;-79
2023/03/26 05:46:53;;;;;;;11.68;1.55;;;6.30;99.90;;;;;;7407061;19;19923;-80
2023/03/26 05:49:22;;;;;;;10.27;1.75;;;5.10;99.90;;;;;;7404396;19;19934;-79
2023/03/26 05:51:54;;;;;;;11.80;1.55;;;6.00;99.90;;;;;;7405275;19;19919;-80
2023/03/26 05:54:23;;;;;;;7.95;1.23;;;6.50;99.90;;;;;;7403437;19;19926;-80
2023/03/26 05:56:52;;;;;;;11.02;1.65;;;6.00;99.90;;;;;;7405841;19;20292;-79
2023/03/26 05:59:21;;;;;;;6.60;0.95;;;6.00;99.90;;;;;;7404124;19;19925;-79
2023/03/26 06:01:50;;;;;;;10.25;1.58;;;6.10;99.90;;;;;;7399924;19;19923;-79
2023/03/26 06:04:20;;;;;;;10.75;1.58;;;6.40;99.90;;;;;;7403223;19;19929;-79
2023/03/26 06:06:51;;;;;;;8.30;1.70;;;6.10;99.90;;;;;;7406522;19;19993;-79
2023/03/26 06:09:23;;;;;;;14.32;2.10;;;6.00;99.90;;;;;;7402743;19;19918;-79
2023/03/26 06:11:56;;;;;;;12.00;2.30;;;6.20;99.90;;;;;;7402631;19;19919;-79
2023/03/26 06:14:25;;;;;;;12.48;1.92;;;6.70;99.90;;;;;;7404893;19;19979;-79
2023/03/26 06:16:54;;;;;;;8.85;1.30;;;6.10;99.90;;;;;;7403477;19;19929;-79
2023/03/26 06:19:23;;;;;;;7.97;1.48;;;6.30;99.90;;;;;;7404235;19;19927;-79
2023/03/26 06:21:52;;;;;;;7.35;1.67;;;6.20;99.90;;;;;;7406361;19;20351;-79
2023/03/26 06:24:23;;;;;;;9.05;1.60;;;6.30;99.90;;;;;;7403750;19;19922;-78
2023/03/26 06:26:52;;;;;;;20.60;1.85;;;6.40;99.90;;;;;;7401455;19;19915;-79
2023/03/26 06:29:22;;;;;;;13.90;1.80;;;6.60;99.90;;;;;;7405062;19;19915;-79
2023/03/26 06:31:51;;;;;;;7.05;1.20;;;6.80;99.90;;;;;;7403210;19;19950;-80
2023/03/26 06:34:20;;;;;;;11.50;1.60;;;6.60;99.90;;;;;;7405230;19;19926;-80
2023/03/26 06:36:51;;;;;;;20.35;8.30;;;6.30;99.90;;;;;;7406017;19;19937;-80
2023/03/26 06:39:23;;;;;;;14.38;5.43;;;6.50;99.90;;;;;;7402229;19;20359;-79
2023/03/26 06:41:52;;;;;;;12.45;3.67;;;6.30;99.90;;;;;;7401241;19;19922;-79
2023/03/26 06:44:22;;;;;;;14.93;2.50;;;6.30;99.90;;;;;;7400605;19;19941;-79
2023/03/26 06:46:51;;;;;;;10.73;2.30;;;6.30;99.90;;;;;;7404228;19;19922;-80
2023/03/26 06:49:20;;;;;;;7.95;1.40;;;6.30;99.90;;;;;;7404475;19;19926;-79
2023/03/26 06:51:49;;;;;;;8.60;1.55;;;6.50;99.90;;;;;;7401876;19;19918;-79
2023/03/26 06:54:18;;;;;;;13.27;1.83;;;6.50;99.90;;;;;;7401727;19;19926;-79
2023/03/26 06:56:49;;;;;;;7.03;1.45;;;6.50;99.90;;;;;;7401061;19;20001;-79
2023/03/26 06:59:18;;;;;;;10.07;2.25;;;6.50;99.90;;;;;;7404154;19;20336;-79
2023/03/26 07:01:47;;;;;;;8.15;1.42;;;6.50;99.90;;;;;;7401626;19;20512;-80
2023/03/26 07:04:17;;;;;;;10.02;1.92;;;6.70;99.90;;;;;;7400543;19;19918;-80
2023/03/26 07:06:46;;;;;;;8.65;1.60;;;7.40;99.90;;;;;;7402735;19;20348;-80
2023/03/26 07:09:15;;;;;;;7.68;2.22;;;6.90;99.90;;;;;;7401329;19;19914;-80
2023/03/26 07:11:44;;;;;;;11.65;3.25;;;6.70;99.90;;;;;;7399355;19;19925;-80
2023/03/26 07:14:15;;;;;;;8.38;1.48;;;6.70;99.90;;;;;;7403727;19;19914;-80
2023/03/26 07:16:44;;;;;;;11.52;1.50;;;7.90;99.90;;;;;;7406575;19;20257;-80
2023/03/26 07:19:13;;;;;;;9.85;1.58;;;6.90;99.90;;;;;;7400990;19;19915;-80
2023/03/26 07:21:45;;;;;;;8.52;1.67;;;7.30;99.90;;;;;;7403939;19;19918;-80
2023/03/26 07:24:15;;;;;;;11.30;1.95;;;6.80;99.90;;;;;;7403469;19;19927;-80
2023/03/26 07:26:53;;;;;;;11.38;1.50;;;6.80;99.90;;;;;;7402055;19;19928;-79
2023/03/26 07:29:34;;;;;;;8.20;1.58;;;6.80;99.90;;;;;;7399650;19;19930;-81
2023/03/26 07:32:13;;;;;;;8.82;2.17;;;6.80;99.90;;;;;;7398055;19;19926;-79
2023/03/26 07:34:52;;;;;;;7.20;1.50;;;6.80;99.90;;;;;;7403016;19;19952;-79
2023/03/26 07:37:34;;;;;;;12.20;1.67;;;7.00;99.90;;;;;;7403611;19;19919;-80
2023/03/26 07:40:11;;;;;;;6.82;1.90;;;6.90;99.90;;;;;;7402494;19;20304;-78
2023/03/26 07:42:50;;;;;;;6.95;1.50;;;6.90;99.90;;;;;;7397717;19;19925;-78
2023/03/26 07:45:32;;;;;;;5.88;1.30;;;7.30;99.90;;;;;;7390265;19;19918;-78
2023/03/26 07:48:03;;;;;;;8.13;1.52;;;6.90;99.90;;;;;;7387356;19;20344;-79
2023/03/26 07:50:32;;;;;;;5.40;1.50;;;7.10;99.90;;;;;;7391267;19;19918;-76
2023/03/26 07:53:02;;;;;;;13.07;1.58;;;7.30;99.90;;;;;;7404339;19;19918;-79
2023/03/26 07:55:34;;;;;;;9.88;1.75;;;7.00;99.90;;;;;;7405646;19;19919;-79
2023/03/26 07:58:21;;;;;;;8.32;1.42;;;6.90;99.90;;;;;;7406243;19;20634;-79
2023/03/26 08:00:58;;;;;;;10.68;1.70;;;7.10;99.90;;;;;;7409155;19;19921;-80
2023/03/26 08:04:06;;;;;;;8.98;1.50;;;7.10;99.90;;;;;;7407758;19;19927;-79
2023/03/26 08:06:37;;;;;;;10.10;1.33;;;7.10;99.90;;;;;;7405498;19;19938;-78
2023/03/26 08:09:14;;;;;;;15.65;2.08;;;7.10;99.90;;;;;;7408543;19;19936;-78
2023/03/26 08:11:53;;;;;;;12.80;1.85;;;7.10;99.90;;;;;;7404331;19;19919;-79
2023/03/26 08:14:41;;;;;;;11.35;1.65;;;7.00;99.90;;;;;;7406556;19;19933;-79
2023/03/26 08:17:16;;;;;;;9.50;1.60;;;7.20;99.90;;;;;;7405607;19;20631;-79
2023/03/26 08:20:00;;;;;;;12.55;1.60;;;7.20;99.90;;;;;;7408126;19;19919;-80
2023/03/26 08:22:35;;;;;;;7.25;1.95;;;7.40;99.90;;;;;;7406093;19;19978;-79
2023/03/26 08:25:18;;;;;;;6.47;1.25;;;7.50;99.90;;;;;;7405541;19;20328;-79
2023/03/26 08:27:57;;;;;;;9.15;1.52;;;7.40;99.90;;;;;;7405730;19;19922;-79
2023/03/26 08:30:29;;;;;;;8.38;2.17;;;7.60;99.90;;;;;;7406218;19;19922;-79
2023/03/26 08:33:06;;;;;;;8.73;1.67;;;7.40;99.90;;;;;;7406590;19;20344;-78
2023/03/26 08:35:37;;;;;;;9.65;1.50;;;7.40;99.90;;;;;;7404117;19;20341;-78
2023/03/26 08:38:06;;;;;;;9.48;1.85;;;7.60;99.90;;;;;;7404227;19;19923;-79
2023/03/26 08:41:01;;;;;;;8.07;1.42;;;7.40;99.90;;;;;;7404587;19;19930;-79
2023/03/26 08:43:46;;;;;;;;;;;7.60;99.90;;;;;;7405080;19;20275;-78
2023/03/26 08:46:40;;;;;;;4.05;0.90;;;7.50;99.90;;;;;;7402296;19;20283;-81
2023/03/26 08:49:37;;;;;;;7.28;1.23;;;7.70;99.90;;;;;;7403510;19;19922;-78
2023/03/26 08:52:50;;;;;;;11.80;1.70;;;7.70;99.90;;;;;;7402889;19;19915;-79
2023/03/26 08:55:40;;;;;;;9.90;2.10;;;7.80;99.90;;;;;;7401565;19;20323;-79
2023/03/26 08:58:54;;;;;;;5.15;1.45;;;7.90;99.90;;;;;;7402337;19;19926;-78
2023/03/26 09:01:47;;;;;;;6.68;1.15;;;7.70;99.90;;;;;;7403092;19;19935;-80
2023/03/26 09:04:45;;;;;;;7.63;1.92;;;8.00;99.90;;;;;;7399872;19;20243;-80
2023/03/26 09:07:38;;;;;;;9.73;1.67;;;8.00;99.90;;;;;;7403311;19;19922;-78
2023/03/26 09:10:39;;;;;;;6.68;1.20;;;8.00;99.90;;;;;;7403909;19;19934;-79
2023/03/26 09:13:34;;;;;;;7.53;2.03;;;7.70;99.90;;;;;;7403165;19;20016;-78
2023/03/26 09:16:40;;;;;;;5.68;1.27;;;8.10;99.90;;;;;;7404743;19;19940;-79
2023/03/26 09:19:44;;;;;;;10.52;1.83;;;8.30;99.90;;;;;;7405327;19;19919;-79
2023/03/26 09:22:39;;;;;;;8.98;1.85;;;8.30;99.90;;;;;;7402618;19;20318;-80
2023/03/26 09:25:27;;;;;;;8.50;1.60;;;8.20;99.90;;;;;;7404414;19;19929;-80
2023/03/26 09:28:28;;;;;;;12.70;1.67;;;8.30;99.90;;;;;;7405122;19;19919;-78
2023/03/26 09:31:16;;;;;;;;;;;8.30;99.90;;;;;;7404960;19;19914;-80
2023/03/26 09:33:58;;;;;;;6.28;1.23;;;8.20;99.90;;;;;;7403041;19;20577;-78
2023/03/26 09:36:55;;;;;;;7.28;1.08;;;8.20;99.90;;;;;;7403842;19;20296;-79
2023/03/26 09:39:46;;;;;;;7.63;1.75;;;8.30;99.90;;;;;;7404959;19;19978;-79
2023/03/26 09:42:25;;;;;;;14.57;1.60;;;8.40;99.90;;;;;;7405765;19;19918;-80
2023/03/26 09:45:18;;;;;;;8.63;1.23;;;8.30;99.90;;;;;;7402209;19;19922;-84
2023/03/26 09:48:29;;;;;;;5.47;1.25;;;8.40;99.90;;;;;;7400945;19;19911;-79
2023/03/26 09:51:17;;;;;;;5.57;1.20;;;8.40;99.90;;;;;;7399826;19;19914;-80
2023/03/26 09:54:01;;;;;;;9.70;1.45;;;8.50;99.90;;;;;;7401674;19;19929;-77
2023/03/26 09:56:48;;;;;;;11.13;1.45;;;8.30;99.90;;;;;;7402169;19;19974;-74
2023/03/26 09:59:53;;;;;;;6.45;2.00;;;8.40;99.90;;;;;;7389582;19;20367;-78
2023/03/26 10:02:50;;;;;;;7.35;1.23;;;8.40;99.90;;;;;;7397235;19;19918;-78
2023/03/26 10:05:42;;;;;;;10.93;1.33;;;8.70;99.90;;;;;;7401288;19;20329;-77
2023/03/26 10:08:36;;;;;;;7.10;1.17;;;8.60;99.90;;;;;;7402599;19;19943;-77
2023/03/26 10:11:14;;;;;;;8.63;1.40;;;8.70;99.90;;;;;;7401931;19;19930;-78
2023/03/26 10:13:57;;;;;;;5.18;0.95;;;8.80;99.90;;;;;;7402888;19;19929;-76
2023/03/26 10:16:30;;;;;;;;;;;8.70;99.90;;;;;;7405495;19;19918;-77
2023/03/26 10:19:14;;;;;;;10.57;1.55;;;8.70;99.90;;;;;;7404089;19;19943;-77
2023/03/26 10:21:49;;;;;;;5.65;1.25;;;8.80;99.90;;;;;;7399289;19;19943;-76
2023/03/26 10:24:31;;;;;;;6.47;1.27;;;8.90;99.90;;;;;;7403668;19;19960;-77
2023/03/26 10:27:12;;;;;;;6.22;1.38;;;8.90;99.90;;;;;;7402965;19;19928;-76
2023/03/26 10:30:09;;;;;;;11.10;1.20;;;9.00;99.90;;;;;;7402479;19;19918;-76
2023/03/26 10:32:48;;;;;;;6.25;1.00;;;8.80;99.90;;;;;;7400279;19;19929;-76
2023/03/26 10:35:27;;;;;;;6.97;1.30;;;8.90;99.90;;;;;;7401924;19;19989;-76
2023/03/26 10:38:10;;;;;;;5.03;1.20;;;8.80;99.90;;;;;;7404228;19;20000;-76
2023/03/26 10:40:49;;;;;;;2.97;0.85;;;8.90;99.90;;;;;;7401611;19;20341;-77
2023/03/26 10:43:53;;;;;;;10.68;1.95;;;9.10;99.90;;;;;;7397278;19;20580;-79
2023/03/26 10:46:46;;;;;;;11.95;2.15;;;9.30;99.90;;;;;;7402656;19;19922;-77
2023/03/26 10:49:41;;;;;;;9.35;2.70;;;9.30;99.90;;;;;;7400820;19;19914;-77
2023/03/26 10:52:14;;;;;;;7.30;1.70;;;9.20;99.90;;;;;;7400379;19;19930;-77
2023/03/26 10:54:56;;;;;;;7.32;1.55;;;9.40;99.90;;;;;;7401858;19;20284;-77
2023/03/26 10:57:38;;;;;;;13.32;2.42;;;9.30;99.90;;;;;;7404263;19;19923;-78
2023/03/26 11:00:24;;;;;;;8.05;2.67;;;9.20;99.90;;;;;;7401438;19;19918;-76
2023/03/26 11:03:21;;;;;;;8.98;2.65;;;9.40;99.90;;;;;;7401204;19;19931;-79
2023/03/26 11:05:58;;;;;;;10.45;2.40;;;9.30;99.90;;;;;;7398373;19;19922;-78
2023/03/26 11:08:35;;;;;;;9.50;1.65;;;9.10;99.90;;;;;;7400114;19;19935;-78
2023/03/26 11:11:13;;;;;;;8.82;1.23;;;9.30;99.90;;;;;;7401947;19;19938;-79
2023/03/26 11:13:52;;;;;;;13.57;3.53;;;9.20;99.90;;;;;;7402343;19;19942;-78
2023/03/26 11:16:29;;;;;;;14.48;3.92;;;9.20;99.90;;;;;;7401923;19;19925;-80
2023/03/26 11:19:05;;;;;;;10.05;3.25;;;9.10;99.90;;;;;;7401979;19;19929;-79
2023/03/26 11:21:41;;;;;;;13.85;2.60;;;9.30;99.90;;;;;;7400422;19;19922;-79
2023/03/26 11:24:41;;;;;;;8.45;2.70;;;9.00;99.90;;;;;;7397691;19;19918;-79
2023/03/26 11:27:18;;;;;;;6.18;1.20;;;9.50;99.90;;;;;;7405551;19;19919;-78
2023/03/26 11:29:56;;;;;;;5.82;1.13;;;7.60;99.90;;;;;;7406088;19;20340;-78
2023/03/26 11:32:41;;;;;;;8.38;1.95;;;10.00;99.90;;;;;;7406491;19;19934;-79
2023/03/26 11:35:20;;;;;;;9.18;2.00;;;10.20;99.90;;;;;;7408273;19;20365;-79
2023/03/26 11:37:54;;;;;;;6.22;1.92;;;10.10;99.90;;;;;;7408467;19;19931;-79
2023/03/26 11:40:27;;;;;;;7.22;1.48;;;10.00;99.90;;;;;;7407502;19;20252;-80
2023/03/26 11:43:00;;;;;;;11.55;1.70;;;10.00;99.90;;;;;;7407139;19;19922;-78
2023/03/26 11:45:32;;;;;;;9.73;2.33;;;9.90;99.90;;;;;;7405913;19;19926;-78
2023/03/26 11:48:08;;;;;;;5.40;1.80;;;9.80;99.90;;;;;;7402959;19;22001;-82
2023/03/26 11:50:46;;;;;;;9.18;1.40;;;9.90;99.90;;;;;;7403326;19;20267;-85
2023/03/26 11:53:16;;;;;;;;;;;9.60;99.90;;;;;;7406412;19;19925;-80
2023/03/26 11:55:51;;;;;;;10.18;1.65;;;9.50;99.90;;;;;;7409383;19;19930;-77
2023/03/26 11:58:32;;;;;;;5.25;1.30;;;9.60;99.90;;;;;;7405449;19;19930;-89
2023/03/26 12:01:06;;;;;;;7.70;1.30;;;9.80;99.90;;;;;;7406535;19;19923;-82
2023/03/26 12:03:36;;;;;;;5.63;1.48;;;10.10;99.90;;;;;;7405813;19;19915;-84
2023/03/26 12:06:24;;;;;;;9.25;1.02;;;10.10;99.90;;;;;;7405458;19;20752;-84
2023/03/26 12:08:53;;;;;;;6.95;1.30;;;10.40;99.90;;;;;;7408180;19;20356;-88
2023/03/26 12:11:27;;;;;;;6.40;1.73;;;10.40;99.90;;;;;;7410562;19;19921;-84
2023/03/26 12:14:01;;;;;;;9.25;1.77;;;10.40;99.90;;;;;;7410535;19;19918;-85
2023/03/26 12:16:30;;;;;;;10.98;2.38;;;10.50;99.90;;;;;;7410801;19;19918;-82
2023/03/26 12:19:02;;;;;;;7.45;1.77;;;10.50;99.90;;;;;;7418939;19;20431;-82
2023/03/26 12:21:46;;;;;;;6.22;1.65;;;10.80;99.90;;;;;;7409005;19;19935;-87
2023/03/26 12:24:29;;;;;;;9.68;1.63;;;11.00;99.90;;;;;;7406812;19;19922;-80
2023/03/26 12:27:01;;;;;;;9.27;1.30;;;10.70;99.90;;;;;;7407387;19;20359;-82
2023/03/26 12:29:33;;;;;;;6.20;1.27;;;10.70;99.90;;;;;;7410252;19;19939;-86
2023/03/26 12:32:08;;;;;;;7.53;2.50;;;10.70;99.90;;;;;;7405465;19;19926;-83
2023/03/26 12:34:39;;;;;;;12.82;4.13;;;10.60;99.90;;;;;;7406282;19;19926;-79
2023/03/26 12:37:37;;;;;;;5.57;1.42;;;10.40;99.90;;;;;;7409847;19;20365;-78
2023/03/26 12:40:27;;;;;;;8.43;1.90;;;10.40;99.90;;;;;;7407625;19;19933;-83
2023/03/26 12:42:58;;;;;;;7.85;2.03;;;10.40;99.90;;;;;;7408797;19;19923;-83
2023/03/26 12:45:31;;;;;;;10.48;2.30;;;10.30;99.90;;;;;;7407930;19;19926;-79
2023/03/26 12:48:01;;;;;;;9.10;1.70;;;10.30;99.90;;;;;;7406259;19;19929;-84
2023/03/26 12:50:38;;;;;;;6.22;1.27;;;10.30;99.90;;;;;;7408537;19;19951;-87
2023/03/26 12:53:29;;;;;;;8.98;1.40;;;10.40;99.90;;;;;;7407987;19;19918;-82
2023/03/26 12:56:02;;;;;;;9.88;1.83;;;10.40;99.90;;;;;;7409410;19;20359;-92
2023/03/26 12:58:50;;;;;;;6.75;1.70;;;10.30;99.90;;;;;;7411174;19;19993;-83
2023/03/26 13:01:29;;;;;;;5.43;1.50;;;10.40;99.90;;;;;;7410230;19;19923;-90
2023/03/26 13:04:32;;;;;;;8.65;1.50;;;10.70;99.90;;;;;;7414435;19;19925;-87
2023/03/26 13:07:12;;;;;;;9.00;1.70;;;10.80;99.90;;;;;;7423100;19;20277;-88
2023/03/26 13:10:21;;;;;;;6.80;2.38;;;11.10;99.90;;;;;;7412814;19;19945;-83
2023/03/26 13:13:01;;;;;;;7.25;1.42;;;11.00;99.90;;;;;;7406946;19;19922;-86
2023/03/26 13:15:37;;;;;;;7.47;1.80;;;10.80;99.90;;;;;;7403467;19;19922;-84
2023/03/26 13:18:22;;;;;;;8.82;2.13;;;10.70;99.90;;;;;;7408832;19;19922;-88
2023/03/26 13:20:56;;;;;;;10.38;1.48;;;10.50;99.90;;;;;;7407548;19;19928;-81
2023/03/26 13:23:36;;;;;;;5.03;1.13;;;10.40;99.90;;;;;;7403461;19;20328;-85
2023/03/26 13:26:16;;;;;;;8.80;1.77;;;10.40;99.90;;;;;;7406564;19;19932;-83
2023/03/26 13:28:53;;;;;;;7.18;1.55;;;10.50;99.90;;;;;;7408615;19;19918;-89
2023/03/26 13:31:28;;;;;;;5.45;0.80;;;10.30;99.90;;;;;;7406046;19;19951;-91
2023/03/26 13:34:04;;;;;;;6.90;1.35;;;10.30;99.90;;;;;;7406308;19;19919;-87
2023/03/26 13:36:45;;;;;;;6.28;1.48;;;10.30;99.90;;;;;;7406906;19;19934;-82
2023/03/26 13:39:26;;;;;;;9.13;1.98;;;10.50;99.90;;;;;;7409782;19;19922;-77
2023/03/26 13:42:14;;;;;;;9.10;1.70;;;10.90;99.90;;;;;;7409740;19;20340;-85